createdAt,value
2022-09-10T00:00:08.607Z,99563.34
2022-09-10T00:02:36.338Z,99560.56
2022-09-10T00:05:02.920Z,99554.13
2022-09-10T00:07:32.006Z,99557.75
2022-09-10T00:09:58.593Z,99560.47
2022-09-10T00:12:25.011Z,99569.56
2022-09-10T00:15:04.908Z,99563.69
2022-09-10T00:17:32.601Z,99569.63
2022-09-10T00:20:01.945Z,99564.91
2022-09-10T00:22:28.363Z,99568.72
2022-09-10T00:24:55.439Z,99573.03
2022-09-10T00:27:21.844Z,99569.63
2022-09-10T00:30:08.179Z,99562.03
2022-09-10T00:35:59.946Z,99558.59
2022-09-10T00:38:31.564Z,99550.66
2022-09-10T00:41:04.936Z,99550.53
2022-09-10T00:43:48.906Z,99550.66
2022-09-10T00:46:20.399Z,99559.13
2022-09-10T00:48:46.862Z,99550.66
2022-09-10T00:51:23.118Z,99543.81
2022-09-10T00:53:50.827Z,99539.78
2022-09-10T00:56:17.663Z,99549.38
2022-09-10T00:58:45.788Z,99539.72
2022-09-10T01:01:12.272Z,99536.75
2022-09-10T01:03:38.934Z,99536.41
2022-09-10T01:06:42.969Z,99536.13
2022-09-10T01:09:29.124Z,99534.97
2022-09-10T01:12:04.917Z,99528.97
2022-09-10T01:14:37.697Z,99531.31
2022-09-10T01:17:11.290Z,99525.16
2022-09-10T01:19:51.793Z,99518.72
2022-09-10T01:22:18.183Z,99517.00
2022-09-10T01:24:45.016Z,99515.44
2022-09-10T01:27:29.792Z,99513.34
2022-09-10T01:30:14.774Z,99507.78
2022-09-10T01:33:04.188Z,99501.00
2022-09-10T01:35:31.174Z,99498.03
2022-09-10T01:38:00.093Z,99485.53
2022-09-10T01:40:30.070Z,99481.75
2022-09-10T01:43:01.242Z,99479.03
2022-09-10T01:45:28.780Z,99483.19
2022-09-10T01:50:29.742Z,99472.59
2022-09-10T01:52:56.536Z,99469.50
2022-09-10T01:55:44.641Z,99484.91
2022-09-10T01:58:21.895Z,99485.75
2022-09-10T02:00:56.002Z,99465.41
2022-09-10T02:03:24.693Z,99459.84
2022-09-10T02:05:53.909Z,99451.63
2022-09-10T02:08:26.176Z,99454.09
2022-09-10T02:11:27.716Z,99448.91
2022-09-10T02:14:14.240Z,99447.63
2022-09-10T02:16:43.201Z,99451.78
2022-09-10T02:19:10.426Z,99445.56
2022-09-10T02:21:37.480Z,99448.97
2022-09-10T02:24:05.897Z,99447.81
2022-09-10T02:26:37.076Z,99455.72
2022-09-10T02:29:22.192Z,99450.66
2022-09-10T02:31:48.666Z,99455.34
2022-09-10T02:34:16.075Z,99454.16
2022-09-10T02:36:43.681Z,99452.16
2022-09-10T02:39:10.104Z,99447.38
2022-09-10T02:41:38.102Z,99439.78
2022-09-10T02:44:16.399Z,99436.09
2022-09-10T02:47:03.203Z,99430.28
2022-09-10T02:49:34.667Z,99419.03
2022-09-10T02:52:02.862Z,99429.13
2022-09-10T02:54:29.484Z,99423.06
2022-09-10T02:56:56.762Z,99428.94
2022-09-10T02:59:23.723Z,99430.37
2022-09-10T03:01:50.173Z,99439.75
2022-09-10T03:04:16.861Z,99440.00
2022-09-10T03:06:43.509Z,99440.72
2022-09-10T03:09:10.053Z,99442.56
2022-09-10T03:11:40.530Z,99450.16
2022-09-10T03:14:09.090Z,99440.09
2022-09-10T03:16:35.709Z,99433.22
2022-09-10T03:19:17.913Z,99438.28
2022-09-10T03:21:46.233Z,99438.31
2022-09-10T03:24:15.224Z,99445.28
2022-09-10T03:26:43.388Z,99452.84
2022-09-10T03:29:10.128Z,99443.38
2022-09-10T03:31:36.935Z,99443.84
2022-09-10T03:37:49.356Z,99436.81
2022-09-10T03:40:16.171Z,99436.09
2022-09-10T03:42:42.723Z,99429.31
2022-09-10T03:45:09.445Z,99429.22
2022-09-10T03:47:39.489Z,99427.84
2022-09-10T03:50:06.469Z,99431.63
2022-09-10T03:52:32.909Z,99427.50
2022-09-10T03:54:59.382Z,99435.50
2022-09-10T03:57:26.227Z,99432.13
2022-09-10T03:59:52.707Z,99428.50
2022-09-10T04:02:19.159Z,99421.06
2022-09-10T04:04:45.596Z,99434.12
2022-09-10T04:07:30.674Z,99421.16
2022-09-10T04:09:57.084Z,99426.25
2022-09-10T04:12:23.985Z,99427.41
2022-09-10T04:14:50.408Z,99423.16
2022-09-10T04:17:18.059Z,99433.56
2022-09-10T04:19:44.707Z,99432.13
2022-09-10T04:22:11.131Z,99450.53
2022-09-10T04:25:16.357Z,99464.81
2022-09-10T04:28:02.571Z,99460.25
2022-09-10T04:30:29.040Z,99457.22
2022-09-10T04:32:55.482Z,99468.03
2022-09-10T04:35:21.892Z,99468.81
2022-09-10T04:37:48.324Z,99462.94
2022-09-10T04:40:14.828Z,99462.38
2022-09-10T04:42:41.295Z,99468.66
2022-09-10T04:45:07.979Z,99461.88
2022-09-10T04:47:34.691Z,99465.47
2022-09-10T04:50:01.234Z,99471.38
2022-09-10T04:52:27.926Z,99471.47
2022-09-10T04:54:54.338Z,99476.34
2022-09-10T04:57:40.616Z,99463.75
2022-09-10T05:00:50.931Z,99463.31
2022-09-10T05:03:23.637Z,99462.75
2022-09-10T05:05:51.046Z,99461.78
2022-09-10T05:08:17.548Z,99462.75
2022-09-10T05:10:45.329Z,99463.03
2022-09-10T05:13:11.721Z,99462.75
2022-09-10T05:15:40.335Z,99462.16
2022-09-10T05:18:12.021Z,99466.50
2022-09-10T05:20:38.410Z,99467.78
2022-09-10T05:23:04.809Z,99472.16
2022-09-10T05:25:31.246Z,99470.16
2022-09-10T05:27:57.681Z,99469.66
2022-09-10T05:30:24.752Z,99473.53
2022-09-10T05:36:33.244Z,99474.56
2022-09-10T05:39:00.384Z,99473.31
2022-09-10T05:41:28.172Z,99481.66
2022-09-10T05:43:54.858Z,99480.06
2022-09-10T05:46:22.313Z,99480.63
2022-09-10T05:48:49.110Z,99476.72
2022-09-10T05:51:34.333Z,99492.56
2022-09-10T05:54:00.761Z,99485.34
2022-09-10T05:56:27.197Z,99481.22
2022-09-10T05:58:53.744Z,99480.38
2022-09-10T06:01:20.212Z,99480.38
2022-09-10T06:03:46.649Z,99485.06
2022-09-10T06:07:03.168Z,99490.09
2022-09-10T06:09:53.671Z,99485.56
2022-09-10T06:12:20.179Z,99472.03
2022-09-10T06:14:46.601Z,99478.31
2022-09-10T06:17:13.044Z,99479.06
2022-09-10T06:19:39.981Z,99470.56
2022-09-10T06:22:06.414Z,99463.84
2022-09-10T06:24:32.844Z,99459.66
2022-09-10T06:27:18.076Z,99459.44
2022-09-10T06:29:44.524Z,99467.25
2022-09-10T06:32:10.956Z,99464.09
2022-09-10T06:34:37.351Z,99458.47
2022-09-10T06:37:04.230Z,99459.97
2022-09-10T06:39:30.719Z,99468.97
2022-09-10T06:42:22.215Z,99463.12
2022-09-10T06:50:50.095Z,99464.53
2022-09-10T06:53:16.773Z,99484.31
2022-09-10T06:55:43.214Z,99487.44
2022-09-10T06:58:09.679Z,99490.41
2022-09-10T07:00:39.283Z,99497.44
2022-09-10T07:03:05.694Z,99498.97
2022-09-10T07:05:35.505Z,99496.44
2022-09-10T07:08:02.101Z,99495.50
2022-09-10T07:10:31.294Z,99501.44
2022-09-10T07:12:57.896Z,99499.75
2022-09-10T07:15:24.288Z,99515.91
2022-09-10T07:18:00.366Z,99516.31
2022-09-10T07:20:28.728Z,99528.53
2022-09-10T07:22:56.204Z,99525.28
2022-09-10T07:25:23.671Z,99528.19
2022-09-10T07:27:50.838Z,99523.56
2022-09-10T07:30:17.390Z,99529.72
2022-09-10T07:36:21.550Z,99529.47
2022-09-10T07:38:51.307Z,99534.03
2022-09-10T07:41:18.673Z,99546.88
2022-09-10T07:43:45.162Z,99544.09
2022-09-10T07:46:12.961Z,99542.94
2022-09-10T07:48:40.346Z,99544.63
2022-09-10T07:51:08.268Z,99554.97
2022-09-10T07:53:34.824Z,99551.87
2022-09-10T07:56:02.102Z,99558.03
2022-09-10T07:58:29.539Z,99549.31
2022-09-10T08:00:56.021Z,99552.84
2022-09-10T08:03:22.543Z,99553.59
2022-09-10T08:05:49.200Z,99551.63
2022-09-10T08:08:16.174Z,99556.56
2022-09-10T08:10:42.777Z,99561.56
2022-09-10T08:13:12.319Z,99562.06
2022-09-10T08:15:43.712Z,99558.75
2022-09-10T08:18:11.166Z,99564.41
2022-09-10T08:20:40.090Z,99563.19
2022-09-10T08:23:07.206Z,99562.62
2022-09-10T08:25:33.732Z,99561.16
2022-09-10T08:28:00.912Z,99566.91
2022-09-10T08:30:27.952Z,99568.53
2022-09-10T08:32:54.776Z,99565.84
2022-09-10T08:35:21.172Z,99560.69
2022-09-10T08:37:47.881Z,99565.03
2022-09-10T08:40:14.898Z,99568.13
2022-09-10T08:42:46.090Z,99568.34
2022-09-10T08:45:24.129Z,99572.94
2022-09-10T08:47:53.589Z,99575.75
2022-09-10T08:50:25.921Z,99570.66
2022-09-10T08:52:55.985Z,99577.00
2022-09-10T08:55:25.752Z,99575.66
2022-09-10T08:57:55.630Z,99568.94
2022-09-10T09:00:23.886Z,99564.06
2022-09-10T09:02:56.736Z,99566.34
2022-09-10T09:05:24.130Z,99574.09
2022-09-10T09:07:51.200Z,99579.38
2022-09-10T09:10:32.931Z,99574.97
2022-09-10T09:13:11.599Z,99577.25
2022-09-10T09:16:04.354Z,99583.44
2022-09-10T09:18:30.860Z,99586.03
2022-09-10T09:21:01.802Z,99585.25
2022-09-10T09:23:35.366Z,99578.19
2022-09-10T09:26:04.377Z,99589.78
2022-09-10T09:28:33.949Z,99585.84
2022-09-10T09:31:09.343Z,99582.25
2022-09-10T09:33:36.561Z,99586.53
2022-09-10T09:36:04.897Z,99573.66
2022-09-10T09:38:31.320Z,99579.06
2022-09-10T09:41:01.840Z,99571.22
2022-09-10T09:43:40.864Z,99572.53
2022-09-10T09:46:16.526Z,99571.75
2022-09-10T09:48:43.423Z,99579.84
2022-09-10T09:51:13.836Z,99573.34
2022-09-10T09:53:42.346Z,99571.88
2022-09-10T09:56:15.359Z,99571.56
2022-09-10T09:58:47.079Z,99571.50
2022-09-10T10:01:15.509Z,99575.34
2022-09-10T10:03:52.207Z,99566.94
2022-09-10T10:06:38.869Z,99569.84
2022-09-10T10:09:06.667Z,99559.44
2022-09-10T10:11:41.997Z,99549.59
2022-09-10T10:14:39.229Z,99558.69
2022-09-10T10:17:26.026Z,99556.09
2022-09-10T10:20:12.937Z,99549.00
2022-09-10T10:22:40.629Z,99547.09
2022-09-10T10:25:27.052Z,99551.31
2022-09-10T10:27:54.442Z,99544.34
2022-09-10T10:30:22.823Z,99539.44
2022-09-10T10:33:02.961Z,99538.22
2022-09-10T10:35:46.484Z,99533.44
2022-09-10T10:38:18.872Z,99536.47
2022-09-10T10:41:02.256Z,99535.19
2022-09-10T10:43:47.778Z,99531.31
2022-09-10T10:46:21.540Z,99534.28
2022-09-10T10:49:06.659Z,99519.94
2022-09-10T10:51:36.064Z,99528.34
2022-09-10T10:54:20.335Z,99528.63
2022-09-10T10:57:05.791Z,99519.94
2022-09-10T10:59:39.015Z,99527.72
2022-09-10T11:02:14.094Z,99523.06
2022-09-10T11:04:51.105Z,99522.66
2022-09-10T11:07:20.586Z,99521.78
2022-09-10T11:09:46.962Z,99530.34
2022-09-10T11:12:20.465Z,99521.09
2022-09-10T11:14:59.443Z,99531.81
2022-09-10T11:17:28.708Z,99525.91
2022-09-10T11:20:28.938Z,99515.34
2022-09-10T11:23:05.482Z,99522.31
2022-09-10T11:25:37.065Z,99519.88
2022-09-10T11:28:15.687Z,99515.72
2022-09-10T11:30:45.860Z,99515.81
2022-09-10T11:33:18.653Z,99516.22
2022-09-10T11:35:53.380Z,99509.72
2022-09-10T11:38:28.099Z,99510.63
2022-09-10T11:41:00.737Z,99507.09
2022-09-10T11:43:33.343Z,99516.59
2022-09-10T11:46:08.182Z,99506.09
2022-09-10T11:48:41.888Z,99511.00
2022-09-10T11:51:13.517Z,99507.72
2022-09-10T11:53:41.148Z,99517.41
2022-09-10T11:56:27.253Z,99510.97
2022-09-10T11:58:59.479Z,99509.25
2022-09-10T12:01:44.761Z,99507.63
2022-09-10T12:04:47.662Z,99519.03
2022-09-10T12:07:17.467Z,99523.13
2022-09-10T12:09:50.109Z,99515.47
2022-09-10T12:12:22.520Z,99516.00
2022-09-10T12:14:49.020Z,99513.66
2022-09-10T12:17:15.439Z,99511.63
2022-09-10T12:19:47.983Z,99515.13
2022-09-10T12:22:20.514Z,99510.47
2022-09-10T12:25:07.354Z,99510.84
2022-09-10T12:27:57.911Z,99514.00
2022-09-10T12:30:36.304Z,99498.03
2022-09-10T12:33:24.721Z,99511.63
2022-09-10T12:35:51.708Z,99507.22
2022-09-10T12:38:41.262Z,99515.63
2022-09-10T12:41:14.788Z,99508.88
2022-09-10T12:43:41.531Z,99503.28
2022-09-10T12:46:12.668Z,99504.91
2022-09-10T12:48:44.958Z,99493.66
2022-09-10T12:51:18.000Z,99509.53
2022-09-10T12:53:50.665Z,99496.84
2022-09-10T12:56:17.090Z,99491.63
2022-09-10T12:59:10.530Z,99495.12
2022-09-10T13:01:46.316Z,99499.53
2022-09-10T13:04:26.038Z,99495.03
2022-09-10T13:06:59.366Z,99490.28
2022-09-10T13:09:28.436Z,99492.38
2022-09-10T13:11:59.508Z,99490.84
2022-09-10T13:14:38.196Z,99486.41
2022-09-10T13:17:04.704Z,99485.53
2022-09-10T13:19:31.117Z,99482.44
2022-09-10T13:21:58.028Z,99485.16
2022-09-10T13:24:33.874Z,99489.13
2022-09-10T13:27:03.273Z,99481.59
2022-09-10T13:29:32.540Z,99492.25
2022-09-10T13:32:14.764Z,99481.94
2022-09-10T13:35:01.489Z,99487.50
2022-09-10T13:37:40.131Z,99483.88
2022-09-10T13:40:19.702Z,99475.94
2022-09-10T13:42:46.086Z,99472.38
2022-09-10T13:45:21.851Z,99463.28
2022-09-10T13:47:51.327Z,99468.91
2022-09-10T13:50:17.744Z,99462.47
2022-09-10T13:52:45.719Z,99463.22
2022-09-10T13:55:18.535Z,99471.25
2022-09-10T13:57:47.603Z,99468.41
2022-09-10T14:00:14.466Z,99471.25
2022-09-10T14:02:42.010Z,99471.72
2022-09-10T14:05:23.552Z,99470.47
2022-09-10T14:07:51.136Z,99472.84
2022-09-10T14:10:18.645Z,99467.28
2022-09-10T14:12:45.865Z,99465.19
2022-09-10T14:15:17.094Z,99466.87
2022-09-10T14:17:50.732Z,99461.19
2022-09-10T14:20:23.562Z,99456.34
2022-09-10T14:22:58.849Z,99461.66
2022-09-10T14:25:36.177Z,99456.38
2022-09-10T14:28:24.244Z,99452.34
2022-09-10T14:30:51.765Z,99460.75
2022-09-10T14:33:21.319Z,99457.97
2022-09-10T14:35:51.537Z,99457.97
2022-09-10T14:38:21.036Z,99459.09
2022-09-10T14:40:48.190Z,99458.44
2022-09-10T14:43:27.441Z,99455.59
2022-09-10T14:45:55.434Z,99449.59
2022-09-10T14:48:32.871Z,99456.78
2022-09-10T14:51:10.657Z,99455.28
2022-09-10T14:53:37.499Z,99452.84
2022-09-10T14:56:05.211Z,99450.69
2022-09-10T14:58:31.786Z,99463.94
2022-09-10T15:00:58.687Z,99451.97
2022-09-10T15:03:25.201Z,99462.78
2022-09-10T15:05:51.615Z,99452.81
2022-09-10T15:08:18.031Z,99462.41
2022-09-10T15:10:44.454Z,99460.41
2022-09-10T15:13:14.801Z,99458.88
2022-09-10T15:15:41.252Z,99452.75
2022-09-10T15:18:17.326Z,99460.37
2022-09-10T15:20:43.741Z,99460.72
2022-09-10T15:23:11.571Z,99468.78
2022-09-10T15:25:44.278Z,99460.37
2022-09-10T15:28:10.684Z,99459.94
2022-09-10T15:30:37.166Z,99460.31
2022-09-10T15:33:04.622Z,99466.38
2022-09-10T15:35:31.162Z,99475.53
2022-09-10T15:37:58.021Z,99477.63
2022-09-10T15:40:24.640Z,99484.75
2022-09-10T15:42:54.177Z,99476.75
2022-09-10T15:45:21.036Z,99485.91
2022-09-10T15:47:47.461Z,99487.78
2022-09-10T15:50:16.264Z,99496.66
2022-09-10T15:52:44.944Z,99491.91
2022-09-10T15:55:12.351Z,99491.94
2022-09-10T15:57:40.352Z,99503.50
2022-09-10T16:00:07.581Z,99496.53
2022-09-10T16:02:34.137Z,99496.41
2022-09-10T16:05:03.910Z,99500.78
2022-09-10T16:07:30.484Z,99513.94
2022-09-10T16:09:58.794Z,99515.25
2022-09-10T16:12:27.911Z,99523.03
2022-09-10T16:14:54.655Z,99510.03
2022-09-10T16:17:21.089Z,99530.38
2022-09-10T16:19:47.511Z,99517.03
2022-09-10T16:22:16.447Z,99532.38
2022-09-10T16:24:46.450Z,99530.00
2022-09-10T16:27:12.940Z,99528.28
2022-09-10T16:29:46.104Z,99528.31
2022-09-10T16:32:12.962Z,99530.69
2022-09-10T16:34:39.738Z,99534.69
2022-09-10T16:37:06.242Z,99535.78
2022-09-10T16:39:32.801Z,99536.66
2022-09-10T16:41:59.392Z,99529.81
2022-09-10T16:47:00.624Z,99535.37
2022-09-10T16:49:27.487Z,99532.12
2022-09-10T16:51:54.384Z,99536.06
2022-09-10T16:54:46.279Z,99533.78
2022-09-10T16:57:12.697Z,99534.97
2022-09-10T16:59:39.094Z,99532.59
2022-09-10T17:02:07.513Z,99529.41
2022-09-10T17:04:34.642Z,99534.53
2022-09-10T17:07:01.145Z,99538.50
2022-09-10T17:09:45.703Z,99532.50
2022-09-10T17:15:30.280Z,99543.91
2022-09-10T17:17:57.224Z,99550.25
2022-09-10T17:20:23.626Z,99555.62
2022-09-10T17:22:50.085Z,99558.87
2022-09-10T17:25:16.819Z,99563.84
2022-09-10T17:27:43.286Z,99565.34
2022-09-10T17:30:09.929Z,99564.06
2022-09-10T17:32:36.409Z,99571.22
2022-09-10T17:35:02.853Z,99574.81
2022-09-10T17:37:29.339Z,99564.81
2022-09-10T17:39:55.919Z,99582.87
2022-09-10T17:42:22.398Z,99581.63
2022-09-10T17:44:49.435Z,99578.06
2022-09-10T17:47:15.926Z,99581.00
2022-09-10T17:49:43.532Z,99580.03
2022-09-10T17:52:10.185Z,99592.16
2022-09-10T17:54:36.672Z,99591.94
2022-09-10T17:57:03.326Z,99598.41
2022-09-10T17:59:48.173Z,99608.75
2022-09-10T18:02:15.559Z,99604.72
2022-09-10T18:04:42.301Z,99615.13
2022-09-10T18:07:11.837Z,99613.31
2022-09-10T18:09:38.331Z,99612.00
2022-09-10T18:12:04.862Z,99620.25
2022-09-10T18:20:49.812Z,99629.72
2022-09-10T18:23:16.227Z,99637.28
2022-09-10T18:25:47.909Z,99634.44
2022-09-10T18:28:16.193Z,99640.78
2022-09-10T18:30:42.692Z,99641.91
2022-09-10T18:33:21.140Z,99643.53
2022-09-10T18:35:47.564Z,99644.25
2022-09-10T18:38:13.972Z,99641.84
2022-09-10T18:40:42.497Z,99644.47
2022-09-10T18:43:09.064Z,99646.38
2022-09-10T18:45:35.512Z,99647.84
2022-09-10T18:48:02.036Z,99648.44
2022-09-10T18:51:10.401Z,99645.91
2022-09-10T18:53:53.883Z,99645.13
2022-09-10T18:56:23.328Z,99630.47
2022-09-10T18:58:55.719Z,99633.41
2022-09-10T19:01:23.119Z,99627.00
2022-09-10T19:03:50.019Z,99621.34
2022-09-10T19:06:17.965Z,99618.50
2022-09-10T19:08:48.952Z,99617.91
2022-09-10T19:11:19.094Z,99622.78
2022-09-10T19:13:52.703Z,99619.03
2022-09-10T19:16:22.735Z,99626.69
2022-09-10T19:18:52.840Z,99617.69
2022-09-10T19:21:20.286Z,99621.19
2022-09-10T19:23:47.606Z,99618.16
2022-09-10T19:26:14.169Z,99610.16
2022-09-10T19:28:40.876Z,99608.56
2022-09-10T19:31:08.190Z,99615.38
2022-09-10T19:33:36.324Z,99615.56
2022-09-10T19:36:14.336Z,99624.12
2022-09-10T19:38:41.223Z,99614.47
2022-09-10T19:41:14.306Z,99627.63
2022-09-10T19:43:41.226Z,99629.47
2022-09-10T19:46:10.362Z,99634.78
2022-09-10T19:48:37.338Z,99626.84
2022-09-10T19:51:05.198Z,99632.41
2022-09-10T19:53:33.282Z,99634.25
2022-09-10T19:56:03.605Z,99629.84
2022-09-10T19:58:30.143Z,99630.66
2022-09-10T20:00:56.587Z,99633.25
2022-09-10T20:03:23.024Z,99634.06
2022-09-10T20:05:49.549Z,99636.63
2022-09-10T20:08:15.982Z,99635.53
2022-09-10T20:10:49.426Z,99648.09
2022-09-10T20:13:17.786Z,99638.41
2022-09-10T20:15:45.590Z,99630.94
2022-09-10T20:18:12.338Z,99629.69
2022-09-10T20:20:38.826Z,99632.56
2022-09-10T20:23:05.276Z,99635.69
2022-09-10T20:25:31.975Z,99625.88
2022-09-10T20:28:01.312Z,99636.81
2022-09-10T20:30:27.753Z,99643.00
2022-09-10T20:32:56.647Z,99639.31
2022-09-10T20:35:23.069Z,99640.63
2022-09-10T20:37:51.745Z,99647.75
2022-09-10T20:40:18.295Z,99646.56
2022-09-10T20:42:44.763Z,99646.94
2022-09-10T20:45:11.401Z,99653.94
2022-09-10T20:50:13.208Z,99653.44
2022-09-10T20:52:40.290Z,99652.16
2022-09-10T20:55:07.078Z,99652.81
2022-09-10T20:57:33.494Z,99650.41
2022-09-10T21:00:00.182Z,99639.50
2022-09-10T21:02:26.873Z,99644.22
2022-09-10T21:04:53.517Z,99647.28
2022-09-10T21:07:20.458Z,99645.22
2022-09-10T21:09:46.876Z,99644.63
2022-09-10T21:12:13.479Z,99637.28
2022-09-10T21:14:39.937Z,99630.28
2022-09-10T21:17:06.388Z,99627.06
2022-09-10T21:19:33.671Z,99621.06
2022-09-10T21:22:00.201Z,99640.75
2022-09-10T21:24:45.201Z,99638.78
2022-09-10T21:27:11.661Z,99642.09
2022-09-10T21:29:38.366Z,99648.44
2022-09-10T21:32:04.839Z,99640.75
2022-09-10T21:34:32.414Z,99636.63
2022-09-10T21:36:58.804Z,99634.50
2022-09-10T21:42:50.197Z,99633.06
2022-09-10T21:48:01.840Z,99647.38
2022-09-10T21:50:28.628Z,99647.09
2022-09-10T21:52:55.019Z,99651.19
2022-09-10T21:55:21.538Z,99645.22
2022-09-10T21:57:47.916Z,99652.81
2022-09-10T22:00:16.112Z,99657.41
2022-09-10T22:02:42.574Z,99664.28
2022-09-10T22:05:09.114Z,99668.03
2022-09-10T22:07:35.535Z,99672.38
2022-09-10T22:10:02.052Z,99674.41
2022-09-10T22:12:28.938Z,99679.78
2022-09-10T22:15:10.479Z,99679.50
2022-09-10T22:17:36.899Z,99682.03
2022-09-10T22:20:03.937Z,99690.91
2022-09-10T22:22:30.538Z,99697.53
2022-09-10T22:24:56.943Z,99702.63
2022-09-10T22:27:23.360Z,99704.84
2022-09-10T22:33:29.946Z,99708.88
2022-09-10T22:35:56.361Z,99701.34
2022-09-10T22:38:22.811Z,99705.28
2022-09-10T22:40:49.304Z,99712.00
2022-09-10T22:43:15.716Z,99704.50
2022-09-10T22:45:42.106Z,99703.69
2022-09-10T22:48:33.226Z,99705.47
2022-09-10T22:50:59.829Z,99705.63
2022-09-10T22:53:26.260Z,99701.84
2022-09-10T22:55:53.837Z,99706.56
2022-09-10T22:58:20.331Z,99702.59
2022-09-10T23:00:46.798Z,99702.22
2022-09-10T23:03:13.244Z,99701.84
2022-09-10T23:09:12.999Z,99701.00
2022-09-10T23:11:39.907Z,99694.22
2022-09-10T23:14:07.736Z,99694.28
2022-09-10T23:16:35.472Z,99687.19
2022-09-10T23:19:04.023Z,99689.97
2022-09-10T23:21:31.470Z,99683.03
2022-09-10T23:24:17.539Z,99685.25
2022-09-10T23:26:44.130Z,99685.56
2022-09-10T23:29:10.578Z,99688.63
2022-09-10T23:31:37.857Z,99687.00
2022-09-10T23:34:05.721Z,99687.25
2022-09-10T23:36:42.612Z,99690.03
2022-09-10T23:42:52.606Z,99690.06
2022-09-10T23:45:19.022Z,99686.81
2022-09-10T23:47:46.737Z,99693.50
2022-09-10T23:50:13.420Z,99695.22
2022-09-10T23:52:39.850Z,99690.16
2022-09-10T23:55:06.501Z,99696.97
2022-09-10T23:57:32.928Z,99692.22
